sensor_id;sensor_type;location;lat;lon;timestamp;temperature;humidity
10046;DHT22;5063;50.878;4.742;2022-09-14T00:02:08;18.00;99.90
10046;DHT22;5063;50.878;4.742;2022-09-14T00:04:34;18.00;99.90
10046;DHT22;5063;50.878;4.742;2022-09-14T00:07:00;18.00;99.90
10046;DHT22;5063;50.878;4.742;2022-09-14T00:09:26;17.90;99.90
10046;DHT22;5063;50.878;4.742;2022-09-14T00:11:51;17.80;99.90
10046;DHT22;5063;50.878;4.742;2022-09-14T00:14:18;17.80;99.90
10046;DHT22;5063;50.878;4.742;2022-09-14T00:16:44;17.70;99.90
10046;DHT22;5063;50.878;4.742;2022-09-14T00:19:21;17.70;99.90
10046;DHT22;5063;50.878;4.742;2022-09-14T00:21:52;17.70;99.90
10046;DHT22;5063;50.878;4.742;2022-09-14T00:24:19;17.70;99.90
10046;DHT22;5063;50.878;4.742;2022-09-14T00:26:45;17.70;99.90
10046;DHT22;5063;50.878;4.742;2022-09-14T00:29:11;17.70;99.90
10046;DHT22;5063;50.878;4.742;2022-09-14T00:31:38;17.60;99.90
10046;DHT22;5063;50.878;4.742;2022-09-14T00:34:06;17.60;99.90
10046;DHT22;5063;50.878;4.742;2022-09-14T00:36:36;17.60;99.90
10046;DHT22;5063;50.878;4.742;2022-09-14T00:39:02;17.60;99.90
10046;DHT22;5063;50.878;4.742;2022-09-14T00:41:31;17.50;99.90
10046;DHT22;5063;50.878;4.742;2022-09-14T00:46:53;17.50;99.90
10046;DHT22;5063;50.878;4.742;2022-09-14T00:49:37;17.50;99.90
10046;DHT22;5063;50.878;4.742;2022-09-14T00:54:48;17.50;99.90
10046;DHT22;5063;50.878;4.742;2022-09-14T00:57:16;17.50;99.90
10046;DHT22;5063;50.878;4.742;2022-09-14T00:59:44;17.50;99.90
10046;DHT22;5063;50.878;4.742;2022-09-14T01:02:11;17.40;99.90
10046;DHT22;5063;50.878;4.742;2022-09-14T01:04:39;17.50;99.90
10046;DHT22;5063;50.878;4.742;2022-09-14T01:12:59;17.40;99.90
10046;DHT22;5063;50.878;4.742;2022-09-14T01:15:45;17.30;99.90
10046;DHT22;5063;50.878;4.742;2022-09-14T01:20:57;17.30;99.90
10046;DHT22;5063;50.878;4.742;2022-09-14T01:29:32;17.30;99.90
10046;DHT22;5063;50.878;4.742;2022-09-14T01:32:13;17.20;99.90
10046;DHT22;5063;50.878;4.742;2022-09-14T01:37:25;17.10;99.90
10046;DHT22;5063;50.878;4.742;2022-09-14T01:40:00;17.10;99.90
10046;DHT22;5063;50.878;4.742;2022-09-14T01:42:28;17.10;99.90
10046;DHT22;5063;50.878;4.742;2022-09-14T01:45:00;17.10;99.90
10046;DHT22;5063;50.878;4.742;2022-09-14T01:47:35;17.10;99.90
10046;DHT22;5063;50.878;4.742;2022-09-14T01:50:11;17.10;99.90
10046;DHT22;5063;50.878;4.742;2022-09-14T01:52:52;17.00;99.90
10046;DHT22;5063;50.878;4.742;2022-09-14T01:55:20;16.90;99.90
10046;DHT22;5063;50.878;4.742;2022-09-14T01:57:53;16.90;99.90
10046;DHT22;5063;50.878;4.742;2022-09-14T02:00:23;16.90;99.90
10046;DHT22;5063;50.878;4.742;2022-09-14T02:02:53;16.90;99.90
10046;DHT22;5063;50.878;4.742;2022-09-14T02:05:27;16.90;99.90
10046;DHT22;5063;50.878;4.742;2022-09-14T02:07:55;16.90;99.90
10046;DHT22;5063;50.878;4.742;2022-09-14T02:10:21;16.80;99.90
10046;DHT22;5063;50.878;4.742;2022-09-14T02:12:50;16.80;99.90
10046;DHT22;5063;50.878;4.742;2022-09-14T02:15:16;16.80;99.90
10046;DHT22;5063;50.878;4.742;2022-09-14T02:17:42;16.80;99.90
10046;DHT22;5063;50.878;4.742;2022-09-14T02:20:18;16.90;99.90
10046;DHT22;5063;50.878;4.742;2022-09-14T02:22:45;16.80;99.90
10046;DHT22;5063;50.878;4.742;2022-09-14T02:25:11;16.80;99.90
10046;DHT22;5063;50.878;4.742;2022-09-14T02:27:37;16.80;99.90
10046;DHT22;5063;50.878;4.742;2022-09-14T02:30:03;16.80;99.90
10046;DHT22;5063;50.878;4.742;2022-09-14T02:33:44;16.90;99.90
10046;DHT22;5063;50.878;4.742;2022-09-14T02:35:47;16.80;99.90
10046;DHT22;5063;50.878;4.742;2022-09-14T02:38:45;16.80;99.90
10046;DHT22;5063;50.878;4.742;2022-09-14T02:41:30;16.90;99.90
10046;DHT22;5063;50.878;4.742;2022-09-14T02:44:10;16.90;99.90
10046;DHT22;5063;50.878;4.742;2022-09-14T02:46:59;16.90;99.90
10046;DHT22;5063;50.878;4.742;2022-09-14T02:49:42;16.80;99.90
10046;DHT22;5063;50.878;4.742;2022-09-14T02:54:57;16.70;99.90
10046;DHT22;5063;50.878;4.742;2022-09-14T02:57:26;16.70;99.90
10046;DHT22;5063;50.878;4.742;2022-09-14T02:59:53;16.70;99.90
10046;DHT22;5063;50.878;4.742;2022-09-14T03:02:19;16.70;99.90
10046;DHT22;5063;50.878;4.742;2022-09-14T03:04:45;16.70;99.90
10046;DHT22;5063;50.878;4.742;2022-09-14T03:07:11;16.70;99.90
10046;DHT22;5063;50.878;4.742;2022-09-14T03:09:36;16.70;99.90
10046;DHT22;5063;50.878;4.742;2022-09-14T03:12:02;16.70;99.90
10046;DHT22;5063;50.878;4.742;2022-09-14T03:14:28;16.70;99.90
10046;DHT22;5063;50.878;4.742;2022-09-14T03:16:54;16.70;99.90
10046;DHT22;5063;50.878;4.742;2022-09-14T03:19:20;16.70;99.90
10046;DHT22;5063;50.878;4.742;2022-09-14T03:21:46;16.70;99.90
10046;DHT22;5063;50.878;4.742;2022-09-14T03:24:12;16.70;99.90
10046;DHT22;5063;50.878;4.742;2022-09-14T03:26:37;16.60;99.90
10046;DHT22;5063;50.878;4.742;2022-09-14T03:29:05;16.60;99.90
10046;DHT22;5063;50.878;4.742;2022-09-14T03:31:31;16.60;99.90
10046;DHT22;5063;50.878;4.742;2022-09-14T03:33:59;16.50;99.90
10046;DHT22;5063;50.878;4.742;2022-09-14T03:36:27;16.50;99.90
10046;DHT22;5063;50.878;4.742;2022-09-14T03:38:55;16.50;99.90
10046;DHT22;5063;50.878;4.742;2022-09-14T03:41:22;16.40;99.90
10046;DHT22;5063;50.878;4.742;2022-09-14T03:43:48;16.40;99.90
10046;DHT22;5063;50.878;4.742;2022-09-14T03:46:18;16.40;99.90
10046;DHT22;5063;50.878;4.742;2022-09-14T03:48:45;16.40;99.90
10046;DHT22;5063;50.878;4.742;2022-09-14T03:51:12;16.40;99.90
10046;DHT22;5063;50.878;4.742;2022-09-14T03:53:39;16.40;99.90
10046;DHT22;5063;50.878;4.742;2022-09-14T03:56:10;16.40;99.90
10046;DHT22;5063;50.878;4.742;2022-09-14T03:58:37;16.40;99.90
10046;DHT22;5063;50.878;4.742;2022-09-14T04:01:08;16.40;99.90
10046;DHT22;5063;50.878;4.742;2022-09-14T04:03:35;16.40;99.90
10046;DHT22;5063;50.878;4.742;2022-09-14T04:06:02;16.40;99.90
10046;DHT22;5063;50.878;4.742;2022-09-14T04:08:32;16.40;99.90
10046;DHT22;5063;50.878;4.742;2022-09-14T04:10:58;16.40;99.90
10046;DHT22;5063;50.878;4.742;2022-09-14T04:13:24;16.40;99.90
10046;DHT22;5063;50.878;4.742;2022-09-14T04:15:58;16.40;99.90
10046;DHT22;5063;50.878;4.742;2022-09-14T04:18:24;16.40;99.90
10046;DHT22;5063;50.878;4.742;2022-09-14T04:20:54;16.40;99.90
10046;DHT22;5063;50.878;4.742;2022-09-14T04:23:20;16.30;99.90
10046;DHT22;5063;50.878;4.742;2022-09-14T04:25:47;16.40;99.90
10046;DHT22;5063;50.878;4.742;2022-09-14T04:28:13;16.30;99.90
10046;DHT22;5063;50.878;4.742;2022-09-14T04:30:38;16.30;99.90
10046;DHT22;5063;50.878;4.742;2022-09-14T04:33:04;16.20;99.90
10046;DHT22;5063;50.878;4.742;2022-09-14T04:35:30;16.20;99.90
10046;DHT22;5063;50.878;4.742;2022-09-14T04:37:55;16.20;99.90
10046;DHT22;5063;50.878;4.742;2022-09-14T04:40:21;16.20;99.90
10046;DHT22;5063;50.878;4.742;2022-09-14T04:42:47;16.10;99.90
10046;DHT22;5063;50.878;4.742;2022-09-14T04:45:13;16.20;99.90
10046;DHT22;5063;50.878;4.742;2022-09-14T04:47:38;16.20;99.90
10046;DHT22;5063;50.878;4.742;2022-09-14T04:50:04;16.20;99.90
10046;DHT22;5063;50.878;4.742;2022-09-14T04:52:30;16.20;99.90
10046;DHT22;5063;50.878;4.742;2022-09-14T04:54:56;16.20;99.90
10046;DHT22;5063;50.878;4.742;2022-09-14T04:57:22;16.20;99.90
10046;DHT22;5063;50.878;4.742;2022-09-14T04:59:48;16.20;99.90
10046;DHT22;5063;50.878;4.742;2022-09-14T05:02:13;16.20;99.90
10046;DHT22;5063;50.878;4.742;2022-09-14T05:04:39;16.20;99.90
10046;DHT22;5063;50.878;4.742;2022-09-14T05:07:06;16.20;99.90
10046;DHT22;5063;50.878;4.742;2022-09-14T05:09:32;16.20;99.90
10046;DHT22;5063;50.878;4.742;2022-09-14T05:11:58;16.10;99.90
10046;DHT22;5063;50.878;4.742;2022-09-14T05:14:24;16.10;99.90
10046;DHT22;5063;50.878;4.742;2022-09-14T05:16:49;16.10;99.90
10046;DHT22;5063;50.878;4.742;2022-09-14T05:19:16;16.00;99.90
10046;DHT22;5063;50.878;4.742;2022-09-14T05:21:43;16.00;99.90
10046;DHT22;5063;50.878;4.742;2022-09-14T05:24:14;16.00;99.90
10046;DHT22;5063;50.878;4.742;2022-09-14T05:26:41;16.00;99.90
10046;DHT22;5063;50.878;4.742;2022-09-14T05:29:11;16.00;99.90
10046;DHT22;5063;50.878;4.742;2022-09-14T05:31:37;16.00;99.90
10046;DHT22;5063;50.878;4.742;2022-09-14T05:34:03;16.00;99.90
10046;DHT22;5063;50.878;4.742;2022-09-14T05:36:29;15.90;99.90
10046;DHT22;5063;50.878;4.742;2022-09-14T05:38:55;15.80;99.90
10046;DHT22;5063;50.878;4.742;2022-09-14T05:41:22;15.80;99.90
10046;DHT22;5063;50.878;4.742;2022-09-14T05:43:48;15.80;99.90
10046;DHT22;5063;50.878;4.742;2022-09-14T05:46:16;15.80;99.90
10046;DHT22;5063;50.878;4.742;2022-09-14T05:48:42;15.70;99.90
10046;DHT22;5063;50.878;4.742;2022-09-14T05:51:16;15.80;99.90
10046;DHT22;5063;50.878;4.742;2022-09-14T05:53:46;15.80;99.90
10046;DHT22;5063;50.878;4.742;2022-09-14T05:56:14;15.80;99.90
10046;DHT22;5063;50.878;4.742;2022-09-14T05:58:41;15.80;99.90
10046;DHT22;5063;50.878;4.742;2022-09-14T06:03:40;15.70;99.90
10046;DHT22;5063;50.878;4.742;2022-09-14T06:06:08;15.70;99.90
10046;DHT22;5063;50.878;4.742;2022-09-14T06:08:34;15.70;99.90
10046;DHT22;5063;50.878;4.742;2022-09-14T06:11:15;15.60;99.90
10046;DHT22;5063;50.878;4.742;2022-09-14T06:13:42;15.60;99.90
10046;DHT22;5063;50.878;4.742;2022-09-14T06:16:10;15.60;99.90
10046;DHT22;5063;50.878;4.742;2022-09-14T06:18:37;15.60;99.90
10046;DHT22;5063;50.878;4.742;2022-09-14T06:21:04;15.50;99.90
10046;DHT22;5063;50.878;4.742;2022-09-14T06:23:31;15.60;99.90
10046;DHT22;5063;50.878;4.742;2022-09-14T06:25:58;15.60;99.90
10046;DHT22;5063;50.878;4.742;2022-09-14T06:28:26;15.50;99.90
10046;DHT22;5063;50.878;4.742;2022-09-14T06:30:52;15.50;99.90
10046;DHT22;5063;50.878;4.742;2022-09-14T06:33:18;15.60;99.90
10046;DHT22;5063;50.878;4.742;2022-09-14T06:36:02;15.70;99.90
10046;DHT22;5063;50.878;4.742;2022-09-14T06:38:29;15.70;99.90
10046;DHT22;5063;50.878;4.742;2022-09-14T06:40:56;15.70;99.90
10046;DHT22;5063;50.878;4.742;2022-09-14T06:43:23;15.70;99.90
10046;DHT22;5063;50.878;4.742;2022-09-14T06:46:00;15.70;99.90
10046;DHT22;5063;50.878;4.742;2022-09-14T06:48:34;15.90;99.90
10046;DHT22;5063;50.878;4.742;2022-09-14T06:51:04;15.70;99.90
10046;DHT22;5063;50.878;4.742;2022-09-14T06:53:34;15.70;99.90
10046;DHT22;5063;50.878;4.742;2022-09-14T06:56:00;15.80;99.90
10046;DHT22;5063;50.878;4.742;2022-09-14T06:58:26;15.80;99.90
10046;DHT22;5063;50.878;4.742;2022-09-14T07:00:52;16.00;99.90
10046;DHT22;5063;50.878;4.742;2022-09-14T07:03:17;15.90;99.90
10046;DHT22;5063;50.878;4.742;2022-09-14T07:05:43;15.80;99.90
10046;DHT22;5063;50.878;4.742;2022-09-14T07:08:09;15.80;99.90
10046;DHT22;5063;50.878;4.742;2022-09-14T07:10:34;15.90;99.90
10046;DHT22;5063;50.878;4.742;2022-09-14T07:13:00;16.00;99.90
10046;DHT22;5063;50.878;4.742;2022-09-14T07:15:26;16.00;99.90
10046;DHT22;5063;50.878;4.742;2022-09-14T07:17:52;16.00;99.90
10046;DHT22;5063;50.878;4.742;2022-09-14T07:20:18;16.10;99.90
10046;DHT22;5063;50.878;4.742;2022-09-14T07:22:44;16.00;99.90
10046;DHT22;5063;50.878;4.742;2022-09-14T07:25:10;16.00;99.90
10046;DHT22;5063;50.878;4.742;2022-09-14T07:27:36;16.00;99.90
10046;DHT22;5063;50.878;4.742;2022-09-14T07:30:06;16.10;99.90
10046;DHT22;5063;50.878;4.742;2022-09-14T07:32:32;16.10;99.90
10046;DHT22;5063;50.878;4.742;2022-09-14T07:34:58;16.30;99.90
10046;DHT22;5063;50.878;4.742;2022-09-14T07:37:23;16.10;99.90
10046;DHT22;5063;50.878;4.742;2022-09-14T07:39:49;16.10;99.90
10046;DHT22;5063;50.878;4.742;2022-09-14T07:42:15;16.10;99.90
10046;DHT22;5063;50.878;4.742;2022-09-14T07:44:41;16.20;99.90
10046;DHT22;5063;50.878;4.742;2022-09-14T07:47:07;16.30;99.90
10046;DHT22;5063;50.878;4.742;2022-09-14T07:49:32;16.30;99.90
10046;DHT22;5063;50.878;4.742;2022-09-14T07:51:58;16.20;99.90
10046;DHT22;5063;50.878;4.742;2022-09-14T07:54:24;16.20;99.90
10046;DHT22;5063;50.878;4.742;2022-09-14T07:56:50;16.20;99.90
10046;DHT22;5063;50.878;4.742;2022-09-14T07:59:16;16.30;99.90
10046;DHT22;5063;50.878;4.742;2022-09-14T08:01:42;16.30;99.90
10046;DHT22;5063;50.878;4.742;2022-09-14T08:04:07;16.30;99.90
10046;DHT22;5063;50.878;4.742;2022-09-14T08:06:34;16.30;99.90
10046;DHT22;5063;50.878;4.742;2022-09-14T08:09:05;16.30;99.90
10046;DHT22;5063;50.878;4.742;2022-09-14T08:11:32;16.40;99.90
10046;DHT22;5063;50.878;4.742;2022-09-14T08:14:02;16.40;99.90
10046;DHT22;5063;50.878;4.742;2022-09-14T08:16:29;16.50;99.90
10046;DHT22;5063;50.878;4.742;2022-09-14T08:19:01;16.50;99.90
10046;DHT22;5063;50.878;4.742;2022-09-14T08:21:29;16.60;99.90
10046;DHT22;5063;50.878;4.742;2022-09-14T08:23:55;16.50;99.90
10046;DHT22;5063;50.878;4.742;2022-09-14T08:26:26;16.40;99.90
10046;DHT22;5063;50.878;4.742;2022-09-14T08:28:53;16.40;99.90
10046;DHT22;5063;50.878;4.742;2022-09-14T08:31:24;16.30;99.90
10046;DHT22;5063;50.878;4.742;2022-09-14T08:33:52;16.20;99.90
10046;DHT22;5063;50.878;4.742;2022-09-14T08:36:20;16.30;99.90
10046;DHT22;5063;50.878;4.742;2022-09-14T08:38:47;16.30;99.90
10046;DHT22;5063;50.878;4.742;2022-09-14T08:41:37;16.30;99.90
10046;DHT22;5063;50.878;4.742;2022-09-14T08:44:23;16.20;99.90
10046;DHT22;5063;50.878;4.742;2022-09-14T08:46:54;16.20;99.90
10046;DHT22;5063;50.878;4.742;2022-09-14T08:49:44;16.20;99.90
10046;DHT22;5063;50.878;4.742;2022-09-14T08:52:48;16.20;99.90
10046;DHT22;5063;50.878;4.742;2022-09-14T08:55:44;16.30;99.90
10046;DHT22;5063;50.878;4.742;2022-09-14T09:04:53;16.30;99.90
10046;DHT22;5063;50.878;4.742;2022-09-14T09:07:30;16.30;99.90
10046;DHT22;5063;50.878;4.742;2022-09-14T09:09:58;16.20;99.90
10046;DHT22;5063;50.878;4.742;2022-09-14T09:12:40;16.20;99.90
10046;DHT22;5063;50.878;4.742;2022-09-14T09:15:31;16.20;99.90
10046;DHT22;5063;50.878;4.742;2022-09-14T09:19:02;16.30;99.90
10046;DHT22;5063;50.878;4.742;2022-09-14T09:21:24;16.40;99.90
10046;DHT22;5063;50.878;4.742;2022-09-14T09:23:54;16.50;99.90
10046;DHT22;5063;50.878;4.742;2022-09-14T09:26:28;16.50;99.90
10046;DHT22;5063;50.878;4.742;2022-09-14T09:28:57;16.40;99.90
10046;DHT22;5063;50.878;4.742;2022-09-14T09:31:36;16.50;99.90
10046;DHT22;5063;50.878;4.742;2022-09-14T09:34:02;16.60;99.90
10046;DHT22;5063;50.878;4.742;2022-09-14T09:36:34;16.60;99.90
10046;DHT22;5063;50.878;4.742;2022-09-14T09:39:00;16.50;99.90
10046;DHT22;5063;50.878;4.742;2022-09-14T09:41:29;16.60;99.90
10046;DHT22;5063;50.878;4.742;2022-09-14T09:44:05;16.50;99.90
10046;DHT22;5063;50.878;4.742;2022-09-14T09:46:57;16.50;99.90
10046;DHT22;5063;50.878;4.742;2022-09-14T09:49:35;16.50;99.90
10046;DHT22;5063;50.878;4.742;2022-09-14T09:52:13;16.60;99.90
10046;DHT22;5063;50.878;4.742;2022-09-14T09:54:41;16.60;99.90
10046;DHT22;5063;50.878;4.742;2022-09-14T09:57:32;16.60;99.90
10046;DHT22;5063;50.878;4.742;2022-09-14T10:02:38;16.70;99.90
10046;DHT22;5063;50.878;4.742;2022-09-14T10:05:18;16.70;99.90
10046;DHT22;5063;50.878;4.742;2022-09-14T10:07:57;16.80;99.90
10046;DHT22;5063;50.878;4.742;2022-09-14T10:13:12;17.00;99.90
10046;DHT22;5063;50.878;4.742;2022-09-14T10:15:40;17.10;99.90
10046;DHT22;5063;50.878;4.742;2022-09-14T10:25:48;17.10;99.90
10046;DHT22;5063;50.878;4.742;2022-09-14T10:28:28;17.20;99.90
10046;DHT22;5063;50.878;4.742;2022-09-14T10:33:41;17.20;99.90
10046;DHT22;5063;50.878;4.742;2022-09-14T10:41:48;17.40;99.90
10046;DHT22;5063;50.878;4.742;2022-09-14T10:44:58;17.50;99.90
10046;DHT22;5063;50.878;4.742;2022-09-14T11:11:02;17.20;99.90
10046;DHT22;5063;50.878;4.742;2022-09-14T11:24:23;17.30;99.90
10046;DHT22;5063;50.878;4.742;2022-09-14T11:27:21;17.40;99.90
10046;DHT22;5063;50.878;4.742;2022-09-14T11:29:52;17.40;99.90
10046;DHT22;5063;50.878;4.742;2022-09-14T11:35:38;17.30;99.90
10046;DHT22;5063;50.878;4.742;2022-09-14T11:38:19;17.20;99.90
10046;DHT22;5063;50.878;4.742;2022-09-14T11:41:14;17.20;99.90
10046;DHT22;5063;50.878;4.742;2022-09-14T11:46:09;17.40;99.90
10046;DHT22;5063;50.878;4.742;2022-09-14T11:51:23;17.40;99.90
10046;DHT22;5063;50.878;4.742;2022-09-14T11:53:49;17.40;99.90
10046;DHT22;5063;50.878;4.742;2022-09-14T11:56:27;17.40;99.90
10046;DHT22;5063;50.878;4.742;2022-09-14T11:59:04;17.50;99.90
10046;DHT22;5063;50.878;4.742;2022-09-14T12:01:35;17.60;99.90
10046;DHT22;5063;50.878;4.742;2022-09-14T12:04:10;17.50;99.90
10046;DHT22;5063;50.878;4.742;2022-09-14T12:11:37;17.50;99.90
10046;DHT22;5063;50.878;4.742;2022-09-14T12:14:35;17.40;99.90
10046;DHT22;5063;50.878;4.742;2022-09-14T12:17:22;17.40;99.90
10046;DHT22;5063;50.878;4.742;2022-09-14T12:19:50;17.40;99.90
10046;DHT22;5063;50.878;4.742;2022-09-14T12:22:33;17.40;99.90
10046;DHT22;5063;50.878;4.742;2022-09-14T12:25:02;17.40;99.90
10046;DHT22;5063;50.878;4.742;2022-09-14T12:27:30;17.40;99.90
10046;DHT22;5063;50.878;4.742;2022-09-14T12:29:58;17.40;99.90
10046;DHT22;5063;50.878;4.742;2022-09-14T12:32:41;17.50;99.90
10046;DHT22;5063;50.878;4.742;2022-09-14T13:05:17;17.10;99.90
10046;DHT22;5063;50.878;4.742;2022-09-14T13:07:44;17.00;99.90
10046;DHT22;5063;50.878;4.742;2022-09-14T13:10:25;16.90;99.90
10046;DHT22;5063;50.878;4.742;2022-09-14T13:12:54;17.20;99.90
10046;DHT22;5063;50.878;4.742;2022-09-14T13:15:36;17.00;99.90
10046;DHT22;5063;50.878;4.742;2022-09-14T13:21:31;17.20;99.90
10046;DHT22;5063;50.878;4.742;2022-09-14T13:23:40;17.20;99.90
10046;DHT22;5063;50.878;4.742;2022-09-14T13:28:42;17.30;99.90
10046;DHT22;5063;50.878;4.742;2022-09-14T13:31:12;17.30;99.90
10046;DHT22;5063;50.878;4.742;2022-09-14T13:33:49;17.20;99.90
10046;DHT22;5063;50.878;4.742;2022-09-14T13:36:24;17.20;99.90
10046;DHT22;5063;50.878;4.742;2022-09-14T13:38:51;17.30;99.90
10046;DHT22;5063;50.878;4.742;2022-09-14T13:41:19;17.20;99.90
10046;DHT22;5063;50.878;4.742;2022-09-14T13:43:48;17.20;99.90
10046;DHT22;5063;50.878;4.742;2022-09-14T13:46:15;17.10;99.90
10046;DHT22;5063;50.878;4.742;2022-09-14T13:48:42;17.00;99.90
10046;DHT22;5063;50.878;4.742;2022-09-14T13:51:09;17.10;99.90
10046;DHT22;5063;50.878;4.742;2022-09-14T13:58:41;17.20;99.90
10046;DHT22;5063;50.878;4.742;2022-09-14T14:01:08;17.10;99.90
10046;DHT22;5063;50.878;4.742;2022-09-14T14:04:16;17.10;99.90
10046;DHT22;5063;50.878;4.742;2022-09-14T14:06:26;17.10;99.90
10046;DHT22;5063;50.878;4.742;2022-09-14T14:09:04;17.10;99.90
10046;DHT22;5063;50.878;4.742;2022-09-14T14:11:42;17.00;99.90
10046;DHT22;5063;50.878;4.742;2022-09-14T14:19:28;16.90;99.90
10046;DHT22;5063;50.878;4.742;2022-09-14T14:24:38;16.90;99.90
10046;DHT22;5063;50.878;4.742;2022-09-14T14:27:04;16.70;99.90
10046;DHT22;5063;50.878;4.742;2022-09-14T14:29:31;16.40;99.90
10046;DHT22;5063;50.878;4.742;2022-09-14T14:31:57;16.60;99.90
10046;DHT22;5063;50.878;4.742;2022-09-14T14:34:23;16.60;99.90
10046;DHT22;5063;50.878;4.742;2022-09-14T14:36:50;16.70;99.90
10046;DHT22;5063;50.878;4.742;2022-09-14T14:39:24;16.80;99.90
10046;DHT22;5063;50.878;4.742;2022-09-14T14:41:51;16.80;99.90
10046;DHT22;5063;50.878;4.742;2022-09-14T14:44:24;16.80;99.90
10046;DHT22;5063;50.878;4.742;2022-09-14T14:46:52;16.80;99.90
10046;DHT22;5063;50.878;4.742;2022-09-14T14:49:19;16.70;99.90
10046;DHT22;5063;50.878;4.742;2022-09-14T14:51:45;16.60;99.90
10046;DHT22;5063;50.878;4.742;2022-09-14T14:54:12;16.50;99.90
10046;DHT22;5063;50.878;4.742;2022-09-14T14:56:41;16.40;99.90
10046;DHT22;5063;50.878;4.742;2022-09-14T14:59:26;16.40;99.90
10046;DHT22;5063;50.878;4.742;2022-09-14T15:01:54;16.30;99.90
10046;DHT22;5063;50.878;4.742;2022-09-14T15:04:20;16.30;99.90
10046;DHT22;5063;50.878;4.742;2022-09-14T15:06:46;16.30;99.90
10046;DHT22;5063;50.878;4.742;2022-09-14T15:09:24;16.40;99.90
10046;DHT22;5063;50.878;4.742;2022-09-14T15:11:52;16.20;99.90
10046;DHT22;5063;50.878;4.742;2022-09-14T15:14:22;16.00;99.90
10046;DHT22;5063;50.878;4.742;2022-09-14T15:16:48;16.10;99.90
10046;DHT22;5063;50.878;4.742;2022-09-14T15:19:14;16.00;99.90
10046;DHT22;5063;50.878;4.742;2022-09-14T15:21:41;16.00;99.90
10046;DHT22;5063;50.878;4.742;2022-09-14T15:24:08;15.90;99.90
10046;DHT22;5063;50.878;4.742;2022-09-14T15:26:35;16.00;99.90
10046;DHT22;5063;50.878;4.742;2022-09-14T15:29:01;16.10;99.90
10046;DHT22;5063;50.878;4.742;2022-09-14T15:31:27;16.10;99.90
10046;DHT22;5063;50.878;4.742;2022-09-14T15:33:53;16.10;99.90
10046;DHT22;5063;50.878;4.742;2022-09-14T15:36:42;16.20;99.90
10046;DHT22;5063;50.878;4.742;2022-09-14T15:39:12;16.20;99.90
10046;DHT22;5063;50.878;4.742;2022-09-14T15:41:39;16.30;99.90
10046;DHT22;5063;50.878;4.742;2022-09-14T15:44:05;16.20;99.90
10046;DHT22;5063;50.878;4.742;2022-09-14T15:46:32;16.20;99.90
10046;DHT22;5063;50.878;4.742;2022-09-14T15:48:57;16.10;99.90
10046;DHT22;5063;50.878;4.742;2022-09-14T15:51:23;16.10;99.90
10046;DHT22;5063;50.878;4.742;2022-09-14T15:53:49;16.10;99.90
10046;DHT22;5063;50.878;4.742;2022-09-14T15:56:17;16.20;99.90
10046;DHT22;5063;50.878;4.742;2022-09-14T15:58:43;16.30;99.90
10046;DHT22;5063;50.878;4.742;2022-09-14T16:01:14;16.20;99.90
10046;DHT22;5063;50.878;4.742;2022-09-14T16:03:40;16.20;99.90
10046;DHT22;5063;50.878;4.742;2022-09-14T16:06:08;16.10;99.90
10046;DHT22;5063;50.878;4.742;2022-09-14T16:08:35;16.00;99.90
10046;DHT22;5063;50.878;4.742;2022-09-14T16:11:02;16.00;99.90
10046;DHT22;5063;50.878;4.742;2022-09-14T16:13:29;16.00;99.90
10046;DHT22;5063;50.878;4.742;2022-09-14T16:16:10;16.10;99.90
10046;DHT22;5063;50.878;4.742;2022-09-14T16:18:36;16.00;99.90
10046;DHT22;5063;50.878;4.742;2022-09-14T16:23:29;16.00;99.90
10046;DHT22;5063;50.878;4.742;2022-09-14T16:25:55;16.20;99.90
10046;DHT22;5063;50.878;4.742;2022-09-14T16:28:21;16.00;99.90
10046;DHT22;5063;50.878;4.742;2022-09-14T16:30:47;16.00;99.90
10046;DHT22;5063;50.878;4.742;2022-09-14T16:33:12;16.10;99.90
10046;DHT22;5063;50.878;4.742;2022-09-14T16:35:38;16.00;99.90
10046;DHT22;5063;50.878;4.742;2022-09-14T16:38:04;16.00;99.90
10046;DHT22;5063;50.878;4.742;2022-09-14T16:40:30;16.00;99.90
10046;DHT22;5063;50.878;4.742;2022-09-14T16:42:56;16.00;99.90
10046;DHT22;5063;50.878;4.742;2022-09-14T16:45:22;16.00;99.90
10046;DHT22;5063;50.878;4.742;2022-09-14T16:47:47;16.00;99.90
10046;DHT22;5063;50.878;4.742;2022-09-14T16:50:13;16.00;99.90
10046;DHT22;5063;50.878;4.742;2022-09-14T16:52:39;15.90;99.90
10046;DHT22;5063;50.878;4.742;2022-09-14T16:55:05;16.00;99.90
10046;DHT22;5063;50.878;4.742;2022-09-14T16:57:31;15.90;99.90
10046;DHT22;5063;50.878;4.742;2022-09-14T16:59:57;15.90;99.90
10046;DHT22;5063;50.878;4.742;2022-09-14T17:02:23;16.00;99.90
10046;DHT22;5063;50.878;4.742;2022-09-14T17:04:48;16.00;99.90
10046;DHT22;5063;50.878;4.742;2022-09-14T17:07:14;16.00;99.90
10046;DHT22;5063;50.878;4.742;2022-09-14T17:09:40;16.00;99.90
10046;DHT22;5063;50.878;4.742;2022-09-14T17:12:06;16.00;99.90
10046;DHT22;5063;50.878;4.742;2022-09-14T17:14:32;16.00;99.90
10046;DHT22;5063;50.878;4.742;2022-09-14T17:16:58;16.00;99.90
10046;DHT22;5063;50.878;4.742;2022-09-14T17:19:25;16.00;99.90
10046;DHT22;5063;50.878;4.742;2022-09-14T17:21:51;16.10;99.90
10046;DHT22;5063;50.878;4.742;2022-09-14T17:24:18;16.10;99.90
10046;DHT22;5063;50.878;4.742;2022-09-14T17:26:45;16.10;99.90
10046;DHT22;5063;50.878;4.742;2022-09-14T17:29:11;15.90;99.90
10046;DHT22;5063;50.878;4.742;2022-09-14T17:31:39;15.80;99.90
10046;DHT22;5063;50.878;4.742;2022-09-14T17:34:07;15.70;99.90
10046;DHT22;5063;50.878;4.742;2022-09-14T17:36:33;15.60;99.90
10046;DHT22;5063;50.878;4.742;2022-09-14T17:39:01;15.60;99.90
10046;DHT22;5063;50.878;4.742;2022-09-14T17:41:29;15.60;99.90
10046;DHT22;5063;50.878;4.742;2022-09-14T17:44:00;15.60;99.90
10046;DHT22;5063;50.878;4.742;2022-09-14T17:46:27;15.60;99.90
10046;DHT22;5063;50.878;4.742;2022-09-14T17:48:55;15.50;99.90
10046;DHT22;5063;50.878;4.742;2022-09-14T17:51:22;15.60;99.90
10046;DHT22;5063;50.878;4.742;2022-09-14T17:53:51;15.70;99.90
10046;DHT22;5063;50.878;4.742;2022-09-14T17:56:19;15.60;99.90
10046;DHT22;5063;50.878;4.742;2022-09-14T17:58:46;15.60;99.90
10046;DHT22;5063;50.878;4.742;2022-09-14T18:01:20;15.60;99.90
10046;DHT22;5063;50.878;4.742;2022-09-14T18:03:51;15.60;99.90
10046;DHT22;5063;50.878;4.742;2022-09-14T18:06:18;15.50;99.90
10046;DHT22;5063;50.878;4.742;2022-09-14T18:08:44;15.50;99.90
10046;DHT22;5063;50.878;4.742;2022-09-14T18:11:16;15.60;99.90
10046;DHT22;5063;50.878;4.742;2022-09-14T18:13:46;15.60;99.90
10046;DHT22;5063;50.878;4.742;2022-09-14T18:16:15;15.50;99.90
10046;DHT22;5063;50.878;4.742;2022-09-14T18:18:41;15.50;99.90
10046;DHT22;5063;50.878;4.742;2022-09-14T18:21:07;15.60;99.90
10046;DHT22;5063;50.878;4.742;2022-09-14T18:23:34;15.50;99.90
10046;DHT22;5063;50.878;4.742;2022-09-14T18:26:02;15.60;99.90
10046;DHT22;5063;50.878;4.742;2022-09-14T18:28:28;15.60;99.90
10046;DHT22;5063;50.878;4.742;2022-09-14T18:31:02;15.60;99.90
10046;DHT22;5063;50.878;4.742;2022-09-14T18:33:28;15.60;99.90
10046;DHT22;5063;50.878;4.742;2022-09-14T18:35:55;15.70;99.90
10046;DHT22;5063;50.878;4.742;2022-09-14T18:38:21;15.60;99.90